sensor_id;sensor_type;location;lat;lon;timestamp;P1;durP1;ratioP1;P2;durP2;ratioP2
21890;SDS011;11110;52.386;16.940;2024-02-16T00:02:18;40.70;;;15.73;;
21890;SDS011;11110;52.386;16.940;2024-02-16T00:04:47;46.63;;;17.23;;
21890;SDS011;11110;52.386;16.940;2024-02-16T00:07:15;46.57;;;16.40;;
21890;SDS011;11110;52.386;16.940;2024-02-16T00:09:44;46.63;;;17.37;;
21890;SDS011;11110;52.386;16.940;2024-02-16T00:12:14;33.33;;;15.50;;
21890;SDS011;11110;52.386;16.940;2024-02-16T00:14:43;42.67;;;14.63;;
21890;SDS011;11110;52.386;16.940;2024-02-16T00:17:13;46.40;;;16.57;;
21890;SDS011;11110;52.386;16.940;2024-02-16T00:19:41;36.92;;;14.43;;
21890;SDS011;11110;52.386;16.940;2024-02-16T00:22:10;43.20;;;15.87;;
21890;SDS011;11110;52.386;16.940;2024-02-16T00:24:39;40.08;;;15.63;;
21890;SDS011;11110;52.386;16.940;2024-02-16T00:27:08;42.58;;;15.60;;
21890;SDS011;11110;52.386;16.940;2024-02-16T00:29:38;43.13;;;16.23;;
21890;SDS011;11110;52.386;16.940;2024-02-16T00:32:07;44.88;;;16.23;;
21890;SDS011;11110;52.386;16.940;2024-02-16T00:34:36;35.10;;;14.47;;
21890;SDS011;11110;52.386;16.940;2024-02-16T00:37:06;46.00;;;15.70;;
21890;SDS011;11110;52.386;16.940;2024-02-16T00:39:36;41.57;;;15.23;;
21890;SDS011;11110;52.386;16.940;2024-02-16T00:42:06;35.23;;;15.30;;
21890;SDS011;11110;52.386;16.940;2024-02-16T00:44:35;38.37;;;15.23;;
21890;SDS011;11110;52.386;16.940;2024-02-16T00:47:05;40.87;;;15.87;;
21890;SDS011;11110;52.386;16.940;2024-02-16T00:49:34;36.63;;;14.33;;
21890;SDS011;11110;52.386;16.940;2024-02-16T00:52:02;44.77;;;16.13;;
21890;SDS011;11110;52.386;16.940;2024-02-16T00:54:32;43.20;;;17.47;;
21890;SDS011;11110;52.386;16.940;2024-02-16T00:57:01;41.33;;;15.43;;
21890;SDS011;11110;52.386;16.940;2024-02-16T00:59:30;39.50;;;14.13;;
21890;SDS011;11110;52.386;16.940;2024-02-16T01:01:59;45.13;;;15.97;;
21890;SDS011;11110;52.386;16.940;2024-02-16T01:04:29;42.10;;;14.70;;
21890;SDS011;11110;52.386;16.940;2024-02-16T01:06:57;42.27;;;14.83;;
21890;SDS011;11110;52.386;16.940;2024-02-16T01:09:26;45.77;;;16.33;;
21890;SDS011;11110;52.386;16.940;2024-02-16T01:11:54;45.07;;;15.20;;
21890;SDS011;11110;52.386;16.940;2024-02-16T01:14:23;39.37;;;14.43;;
21890;SDS011;11110;52.386;16.940;2024-02-16T01:16:51;42.90;;;14.70;;
21890;SDS011;11110;52.386;16.940;2024-02-16T01:19:20;39.93;;;15.07;;
21890;SDS011;11110;52.386;16.940;2024-02-16T01:21:50;48.50;;;15.77;;
21890;SDS011;11110;52.386;16.940;2024-02-16T01:24:24;46.33;;;15.67;;
21890;SDS011;11110;52.386;16.940;2024-02-16T01:26:53;44.73;;;14.63;;
21890;SDS011;11110;52.386;16.940;2024-02-16T01:29:21;43.50;;;15.87;;
21890;SDS011;11110;52.386;16.940;2024-02-16T01:31:50;49.13;;;15.73;;
21890;SDS011;11110;52.386;16.940;2024-02-16T01:34:18;43.13;;;15.80;;
21890;SDS011;11110;52.386;16.940;2024-02-16T01:36:47;49.37;;;15.03;;
21890;SDS011;11110;52.386;16.940;2024-02-16T01:39:17;47.23;;;15.43;;
21890;SDS011;11110;52.386;16.940;2024-02-16T01:41:45;44.90;;;14.73;;
21890;SDS011;11110;52.386;16.940;2024-02-16T01:44:14;56.03;;;16.37;;
21890;SDS011;11110;52.386;16.940;2024-02-16T01:46:43;46.20;;;16.37;;
21890;SDS011;11110;52.386;16.940;2024-02-16T01:49:12;46.30;;;16.07;;
21890;SDS011;11110;52.386;16.940;2024-02-16T01:51:42;55.87;;;17.33;;
21890;SDS011;11110;52.386;16.940;2024-02-16T01:54:12;46.17;;;16.33;;
21890;SDS011;11110;52.386;16.940;2024-02-16T01:56:45;50.73;;;17.03;;
21890;SDS011;11110;52.386;16.940;2024-02-16T01:59:16;51.90;;;16.83;;
21890;SDS011;11110;52.386;16.940;2024-02-16T02:01:44;48.57;;;16.13;;
21890;SDS011;11110;52.386;16.940;2024-02-16T02:04:13;46.03;;;15.97;;
21890;SDS011;11110;52.386;16.940;2024-02-16T02:06:42;50.43;;;15.87;;
21890;SDS011;11110;52.386;16.940;2024-02-16T02:09:11;46.43;;;16.17;;
21890;SDS011;11110;52.386;16.940;2024-02-16T02:11:39;42.97;;;15.97;;
21890;SDS011;11110;52.386;16.940;2024-02-16T02:14:09;47.40;;;16.33;;
21890;SDS011;11110;52.386;16.940;2024-02-16T02:16:38;47.30;;;15.97;;
21890;SDS011;11110;52.386;16.940;2024-02-16T02:19:21;47.37;;;16.10;;
21890;SDS011;11110;52.386;16.940;2024-02-16T02:21:49;50.60;;;16.27;;
21890;SDS011;11110;52.386;16.940;2024-02-16T02:24:20;43.27;;;16.07;;
21890;SDS011;11110;52.386;16.940;2024-02-16T02:26:48;54.93;;;17.20;;
21890;SDS011;11110;52.386;16.940;2024-02-16T02:29:17;47.63;;;15.93;;
21890;SDS011;11110;52.386;16.940;2024-02-16T02:31:46;46.83;;;17.00;;
21890;SDS011;11110;52.386;16.940;2024-02-16T02:34:15;47.47;;;16.50;;
21890;SDS011;11110;52.386;16.940;2024-02-16T02:36:43;49.37;;;16.07;;
21890;SDS011;11110;52.386;16.940;2024-02-16T02:39:12;45.73;;;16.27;;
21890;SDS011;11110;52.386;16.940;2024-02-16T02:41:42;41.53;;;15.67;;
21890;SDS011;11110;52.386;16.940;2024-02-16T02:44:11;52.37;;;17.97;;
21890;SDS011;11110;52.386;16.940;2024-02-16T02:46:39;44.17;;;16.40;;
21890;SDS011;11110;52.386;16.940;2024-02-16T02:49:08;42.43;;;16.47;;
21890;SDS011;11110;52.386;16.940;2024-02-16T02:51:36;47.63;;;16.87;;
21890;SDS011;11110;52.386;16.940;2024-02-16T02:54:05;48.00;;;16.63;;
21890;SDS011;11110;52.386;16.940;2024-02-16T02:56:34;44.07;;;15.03;;
21890;SDS011;11110;52.386;16.940;2024-02-16T02:59:04;48.27;;;16.93;;
21890;SDS011;11110;52.386;16.940;2024-02-16T03:01:33;44.53;;;15.43;;
21890;SDS011;11110;52.386;16.940;2024-02-16T03:04:03;42.07;;;15.37;;
21890;SDS011;11110;52.386;16.940;2024-02-16T03:06:31;51.90;;;17.43;;
21890;SDS011;11110;52.386;16.940;2024-02-16T03:09:00;44.50;;;16.30;;
21890;SDS011;11110;52.386;16.940;2024-02-16T03:11:28;43.10;;;16.57;;
21890;SDS011;11110;52.386;16.940;2024-02-16T03:13:57;53.43;;;17.67;;
21890;SDS011;11110;52.386;16.940;2024-02-16T03:16:27;49.00;;;17.07;;
21890;SDS011;11110;52.386;16.940;2024-02-16T03:18:55;45.30;;;16.37;;
21890;SDS011;11110;52.386;16.940;2024-02-16T03:21:24;55.50;;;18.20;;
21890;SDS011;11110;52.386;16.940;2024-02-16T03:23:53;50.73;;;18.13;;
21890;SDS011;11110;52.386;16.940;2024-02-16T03:26:21;46.23;;;17.27;;
21890;SDS011;11110;52.386;16.940;2024-02-16T03:28:50;54.87;;;18.03;;
21890;SDS011;11110;52.386;16.940;2024-02-16T03:31:19;52.83;;;18.13;;
21890;SDS011;11110;52.386;16.940;2024-02-16T03:33:51;46.73;;;17.60;;
21890;SDS011;11110;52.386;16.940;2024-02-16T03:36:20;51.23;;;18.17;;
21890;SDS011;11110;52.386;16.940;2024-02-16T03:38:48;48.70;;;18.10;;
21890;SDS011;11110;52.386;16.940;2024-02-16T03:41:18;52.30;;;17.80;;
21890;SDS011;11110;52.386;16.940;2024-02-16T03:43:47;56.37;;;18.77;;
21890;SDS011;11110;52.386;16.940;2024-02-16T03:46:16;46.40;;;16.97;;
21890;SDS011;11110;52.386;16.940;2024-02-16T03:48:45;56.00;;;18.87;;
21890;SDS011;11110;52.386;16.940;2024-02-16T03:51:15;51.07;;;18.90;;
21890;SDS011;11110;52.386;16.940;2024-02-16T03:53:44;45.43;;;17.50;;
21890;SDS011;11110;52.386;16.940;2024-02-16T03:56:17;49.87;;;18.60;;
21890;SDS011;11110;52.386;16.940;2024-02-16T03:58:47;51.77;;;18.37;;
21890;SDS011;11110;52.386;16.940;2024-02-16T04:01:16;49.37;;;18.13;;
21890;SDS011;11110;52.386;16.940;2024-02-16T04:03:44;46.90;;;16.97;;
21890;SDS011;11110;52.386;16.940;2024-02-16T04:06:13;45.37;;;17.73;;
21890;SDS011;11110;52.386;16.940;2024-02-16T04:08:43;50.33;;;17.90;;
21890;SDS011;11110;52.386;16.940;2024-02-16T04:11:11;49.67;;;17.50;;
21890;SDS011;11110;52.386;16.940;2024-02-16T04:13:42;48.93;;;17.50;;
21890;SDS011;11110;52.386;16.940;2024-02-16T04:16:10;48.90;;;18.23;;
21890;SDS011;11110;52.386;16.940;2024-02-16T04:18:39;53.40;;;18.57;;
21890;SDS011;11110;52.386;16.940;2024-02-16T04:21:08;51.53;;;18.13;;
21890;SDS011;11110;52.386;16.940;2024-02-16T04:23:36;61.27;;;18.93;;
21890;SDS011;11110;52.386;16.940;2024-02-16T04:26:06;49.97;;;17.43;;
21890;SDS011;11110;52.386;16.940;2024-02-16T04:28:35;53.93;;;18.23;;
21890;SDS011;11110;52.386;16.940;2024-02-16T04:31:03;54.23;;;17.73;;
21890;SDS011;11110;52.386;16.940;2024-02-16T04:33:34;53.60;;;18.07;;
21890;SDS011;11110;52.386;16.940;2024-02-16T04:36:05;39.47;;;15.63;;
21890;SDS011;11110;52.386;16.940;2024-02-16T04:38:35;47.40;;;16.47;;
21890;SDS011;11110;52.386;16.940;2024-02-16T04:41:05;36.10;;;15.90;;
21890;SDS011;11110;52.386;16.940;2024-02-16T04:43:34;47.13;;;16.93;;
21890;SDS011;11110;52.386;16.940;2024-02-16T04:46:03;62.13;;;20.00;;
21890;SDS011;11110;52.386;16.940;2024-02-16T04:48:32;49.73;;;18.10;;
21890;SDS011;11110;52.386;16.940;2024-02-16T04:51:01;48.40;;;17.93;;
21890;SDS011;11110;52.386;16.940;2024-02-16T04:53:29;64.47;;;19.63;;
21890;SDS011;11110;52.386;16.940;2024-02-16T04:55:58;44.83;;;17.60;;
21890;SDS011;11110;52.386;16.940;2024-02-16T04:58:28;52.53;;;18.30;;
21890;SDS011;11110;52.386;16.940;2024-02-16T05:00:56;49.17;;;18.33;;
21890;SDS011;11110;52.386;16.940;2024-02-16T05:03:25;51.43;;;18.87;;
21890;SDS011;11110;52.386;16.940;2024-02-16T05:05:54;52.70;;;18.10;;
21890;SDS011;11110;52.386;16.940;2024-02-16T05:08:22;51.30;;;17.77;;
21890;SDS011;11110;52.386;16.940;2024-02-16T05:10:51;48.10;;;18.47;;
21890;SDS011;11110;52.386;16.940;2024-02-16T05:13:20;44.70;;;17.13;;
21890;SDS011;11110;52.386;16.940;2024-02-16T05:15:50;46.60;;;17.73;;
21890;SDS011;11110;52.386;16.940;2024-02-16T05:18:21;49.67;;;18.03;;
21890;SDS011;11110;52.386;16.940;2024-02-16T05:20:51;48.73;;;18.13;;
21890;SDS011;11110;52.386;16.940;2024-02-16T05:23:20;50.00;;;17.53;;
21890;SDS011;11110;52.386;16.940;2024-02-16T05:25:49;78.73;;;37.00;;
21890;SDS011;11110;52.386;16.940;2024-02-16T05:28:18;67.83;;;28.47;;
21890;SDS011;11110;52.386;16.940;2024-02-16T05:30:46;54.03;;;20.23;;
21890;SDS011;11110;52.386;16.940;2024-02-16T05:33:16;46.73;;;17.77;;
21890;SDS011;11110;52.386;16.940;2024-02-16T05:35:45;49.57;;;19.27;;
21890;SDS011;11110;52.386;16.940;2024-02-16T05:38:18;57.03;;;19.00;;
21890;SDS011;11110;52.386;16.940;2024-02-16T05:40:59;48.00;;;17.07;;
21890;SDS011;11110;52.386;16.940;2024-02-16T05:43:27;55.60;;;20.10;;
21890;SDS011;11110;52.386;16.940;2024-02-16T05:45:56;51.03;;;19.23;;
21890;SDS011;11110;52.386;16.940;2024-02-16T05:48:26;54.30;;;20.07;;
21890;SDS011;11110;52.386;16.940;2024-02-16T05:50:57;55.67;;;19.57;;
21890;SDS011;11110;52.386;16.940;2024-02-16T05:53:28;53.90;;;20.40;;
21890;SDS011;11110;52.386;16.940;2024-02-16T05:55:56;49.30;;;19.93;;
21890;SDS011;11110;52.386;16.940;2024-02-16T05:58:25;54.30;;;20.40;;
21890;SDS011;11110;52.386;16.940;2024-02-16T06:00:53;49.27;;;19.80;;
21890;SDS011;11110;52.386;16.940;2024-02-16T06:03:22;52.63;;;21.17;;
21890;SDS011;11110;52.386;16.940;2024-02-16T06:05:52;46.50;;;21.33;;
21890;SDS011;11110;52.386;16.940;2024-02-16T06:08:21;54.27;;;22.20;;
21890;SDS011;11110;52.386;16.940;2024-02-16T06:10:51;51.97;;;21.93;;
21890;SDS011;11110;52.386;16.940;2024-02-16T06:13:21;48.60;;;21.67;;
21890;SDS011;11110;52.386;16.940;2024-02-16T06:15:49;49.60;;;21.60;;
21890;SDS011;11110;52.386;16.940;2024-02-16T06:18:18;49.57;;;22.93;;
21890;SDS011;11110;52.386;16.940;2024-02-16T06:20:47;50.87;;;22.30;;
21890;SDS011;11110;52.386;16.940;2024-02-16T06:23:17;53.70;;;22.37;;
21890;SDS011;11110;52.386;16.940;2024-02-16T06:25:45;48.33;;;20.23;;
21890;SDS011;11110;52.386;16.940;2024-02-16T06:28:14;48.23;;;21.43;;
21890;SDS011;11110;52.386;16.940;2024-02-16T06:30:42;61.73;;;23.23;;
21890;SDS011;11110;52.386;16.940;2024-02-16T06:33:11;54.00;;;22.07;;
21890;SDS011;11110;52.386;16.940;2024-02-16T06:35:39;53.33;;;21.77;;
21890;SDS011;11110;52.386;16.940;2024-02-16T06:38:10;55.47;;;20.57;;
21890;SDS011;11110;52.386;16.940;2024-02-16T06:40:39;60.63;;;21.80;;
21890;SDS011;11110;52.386;16.940;2024-02-16T06:43:08;48.83;;;20.03;;
21890;SDS011;11110;52.386;16.940;2024-02-16T06:45:44;60.00;;;22.27;;
21890;SDS011;11110;52.386;16.940;2024-02-16T06:48:14;46.90;;;19.90;;
21890;SDS011;11110;52.386;16.940;2024-02-16T06:50:43;50.10;;;19.77;;
21890;SDS011;11110;52.386;16.940;2024-02-16T06:53:11;55.20;;;21.63;;
21890;SDS011;11110;52.386;16.940;2024-02-16T06:55:41;52.90;;;19.80;;
21890;SDS011;11110;52.386;16.940;2024-02-16T06:58:10;56.57;;;20.87;;
21890;SDS011;11110;52.386;16.940;2024-02-16T07:00:38;54.90;;;21.83;;
21890;SDS011;11110;52.386;16.940;2024-02-16T07:03:09;53.30;;;21.97;;
21890;SDS011;11110;52.386;16.940;2024-02-16T07:05:37;55.03;;;21.27;;
21890;SDS011;11110;52.386;16.940;2024-02-16T07:08:08;57.53;;;21.33;;
21890;SDS011;11110;52.386;16.940;2024-02-16T07:10:36;50.50;;;20.33;;
21890;SDS011;11110;52.386;16.940;2024-02-16T07:13:06;48.43;;;20.00;;
21890;SDS011;11110;52.386;16.940;2024-02-16T07:15:34;51.23;;;22.13;;
21890;SDS011;11110;52.386;16.940;2024-02-16T07:18:03;48.80;;;19.60;;
21890;SDS011;11110;52.386;16.940;2024-02-16T07:20:32;47.63;;;19.97;;
21890;SDS011;11110;52.386;16.940;2024-02-16T07:23:01;56.77;;;20.73;;
21890;SDS011;11110;52.386;16.940;2024-02-16T07:25:29;51.63;;;20.17;;
21890;SDS011;11110;52.386;16.940;2024-02-16T07:27:58;55.13;;;20.90;;
21890;SDS011;11110;52.386;16.940;2024-02-16T07:30:28;51.67;;;20.73;;
21890;SDS011;11110;52.386;16.940;2024-02-16T07:33:08;43.50;;;19.70;;
21890;SDS011;11110;52.386;16.940;2024-02-16T07:35:37;46.67;;;20.17;;
21890;SDS011;11110;52.386;16.940;2024-02-16T07:38:06;45.40;;;18.97;;
21890;SDS011;11110;52.386;16.940;2024-02-16T07:40:34;48.63;;;19.67;;
21890;SDS011;11110;52.386;16.940;2024-02-16T07:43:03;51.63;;;21.17;;
21890;SDS011;11110;52.386;16.940;2024-02-16T07:45:33;60.80;;;21.40;;
21890;SDS011;11110;52.386;16.940;2024-02-16T07:48:02;51.23;;;19.20;;
21890;SDS011;11110;52.386;16.940;2024-02-16T07:50:32;39.37;;;16.27;;
21890;SDS011;11110;52.386;16.940;2024-02-16T07:53:01;54.77;;;19.37;;
21890;SDS011;11110;52.386;16.940;2024-02-16T07:55:30;44.23;;;16.90;;
21890;SDS011;11110;52.386;16.940;2024-02-16T07:57:58;59.83;;;21.53;;
21890;SDS011;11110;52.386;16.940;2024-02-16T08:00:27;51.40;;;19.37;;
21890;SDS011;11110;52.386;16.940;2024-02-16T08:02:57;51.90;;;17.40;;
21890;SDS011;11110;52.386;16.940;2024-02-16T08:05:26;43.17;;;15.23;;
21890;SDS011;11110;52.386;16.940;2024-02-16T08:07:55;53.90;;;17.30;;
21890;SDS011;11110;52.386;16.940;2024-02-16T08:10:24;57.77;;;17.90;;
21890;SDS011;11110;52.386;16.940;2024-02-16T08:12:52;58.23;;;17.87;;
21890;SDS011;11110;52.386;16.940;2024-02-16T08:15:21;50.30;;;17.13;;
21890;SDS011;11110;52.386;16.940;2024-02-16T08:17:51;46.77;;;15.07;;
21890;SDS011;11110;52.386;16.940;2024-02-16T08:20:22;42.90;;;15.90;;
21890;SDS011;11110;52.386;16.940;2024-02-16T08:22:50;43.07;;;14.93;;
21890;SDS011;11110;52.386;16.940;2024-02-16T08:25:19;56.37;;;16.63;;
21890;SDS011;11110;52.386;16.940;2024-02-16T08:27:48;51.60;;;15.77;;
21890;SDS011;11110;52.386;16.940;2024-02-16T08:30:17;49.07;;;16.57;;
21890;SDS011;11110;52.386;16.940;2024-02-16T08:32:46;41.50;;;13.67;;
21890;SDS011;11110;52.386;16.940;2024-02-16T08:35:14;40.47;;;15.23;;
21890;SDS011;11110;52.386;16.940;2024-02-16T08:37:45;40.23;;;14.20;;
21890;SDS011;11110;52.386;16.940;2024-02-16T08:40:14;41.77;;;15.13;;
21890;SDS011;11110;52.386;16.940;2024-02-16T08:42:42;44.97;;;15.53;;
21890;SDS011;11110;52.386;16.940;2024-02-16T08:45:11;44.10;;;14.97;;
21890;SDS011;11110;52.386;16.940;2024-02-16T08:47:40;43.23;;;14.67;;
21890;SDS011;11110;52.386;16.940;2024-02-16T08:50:09;37.97;;;14.23;;
21890;SDS011;11110;52.386;16.940;2024-02-16T08:52:38;49.10;;;14.53;;
21890;SDS011;11110;52.386;16.940;2024-02-16T08:55:08;34.90;;;12.70;;
21890;SDS011;11110;52.386;16.940;2024-02-16T08:57:37;40.67;;;13.40;;
21890;SDS011;11110;52.386;16.940;2024-02-16T09:00:06;35.43;;;13.10;;
21890;SDS011;11110;52.386;16.940;2024-02-16T09:02:36;37.37;;;13.67;;
21890;SDS011;11110;52.386;16.940;2024-02-16T09:05:05;42.97;;;13.93;;
21890;SDS011;11110;52.386;16.940;2024-02-16T09:07:36;38.17;;;12.43;;
21890;SDS011;11110;52.386;16.940;2024-02-16T09:10:05;47.42;;;14.27;;
21890;SDS011;11110;52.386;16.940;2024-02-16T09:12:36;40.00;;;13.70;;
21890;SDS011;11110;52.386;16.940;2024-02-16T09:15:04;34.10;;;12.70;;
21890;SDS011;11110;52.386;16.940;2024-02-16T09:17:33;41.77;;;13.67;;
21890;SDS011;11110;52.386;16.940;2024-02-16T09:20:02;40.05;;;12.85;;
21890;SDS011;11110;52.386;16.940;2024-02-16T09:22:32;35.47;;;12.43;;
21890;SDS011;11110;52.386;16.940;2024-02-16T09:25:04;29.10;;;11.40;;
21890;SDS011;11110;52.386;16.940;2024-02-16T09:27:35;31.08;;;11.20;;
21890;SDS011;11110;52.386;16.940;2024-02-16T09:30:07;40.87;;;12.97;;
21890;SDS011;11110;52.386;16.940;2024-02-16T09:32:38;34.07;;;11.90;;
21890;SDS011;11110;52.386;16.940;2024-02-16T09:35:07;44.08;;;12.90;;
21890;SDS011;11110;52.386;16.940;2024-02-16T09:37:36;39.43;;;11.83;;
21890;SDS011;11110;52.386;16.940;2024-02-16T09:40:07;33.92;;;10.80;;
21890;SDS011;11110;52.386;16.940;2024-02-16T09:42:38;34.30;;;12.27;;
21890;SDS011;11110;52.386;16.940;2024-02-16T09:45:07;41.55;;;12.25;;
21890;SDS011;11110;52.386;16.940;2024-02-16T09:47:39;29.00;;;11.00;;
21890;SDS011;11110;52.386;16.940;2024-02-16T09:50:23;36.85;;;11.43;;
21890;SDS011;11110;52.386;16.940;2024-02-16T09:52:54;28.38;;;11.88;;
21890;SDS011;11110;52.386;16.940;2024-02-16T09:55:24;32.15;;;11.25;;
21890;SDS011;11110;52.386;16.940;2024-02-16T09:57:59;40.03;;;12.43;;
21890;SDS011;11110;52.386;16.940;2024-02-16T10:00:28;35.38;;;12.30;;
21890;SDS011;11110;52.386;16.940;2024-02-16T10:02:56;29.35;;;11.00;;
21890;SDS011;11110;52.386;16.940;2024-02-16T10:05:25;30.77;;;11.27;;
21890;SDS011;11110;52.386;16.940;2024-02-16T10:07:53;31.95;;;10.85;;
21890;SDS011;11110;52.386;16.940;2024-02-16T10:10:22;37.35;;;11.95;;
21890;SDS011;11110;52.386;16.940;2024-02-16T10:13:01;37.78;;;11.73;;
21890;SDS011;11110;52.386;16.940;2024-02-16T10:15:31;33.25;;;10.85;;
21890;SDS011;11110;52.386;16.940;2024-02-16T10:18:00;26.52;;;10.43;;
21890;SDS011;11110;52.386;16.940;2024-02-16T10:20:30;37.67;;;12.23;;
21890;SDS011;11110;52.386;16.940;2024-02-16T10:23:06;33.17;;;11.25;;
21890;SDS011;11110;52.386;16.940;2024-02-16T10:25:36;33.38;;;11.20;;
21890;SDS011;11110;52.386;16.940;2024-02-16T10:28:08;30.13;;;9.73;;
21890;SDS011;11110;52.386;16.940;2024-02-16T10:30:39;32.65;;;11.32;;
21890;SDS011;11110;52.386;16.940;2024-02-16T10:33:10;36.78;;;11.82;;
21890;SDS011;11110;52.386;16.940;2024-02-16T10:35:40;24.67;;;9.02;;
21890;SDS011;11110;52.386;16.940;2024-02-16T10:38:10;30.23;;;10.27;;
21890;SDS011;11110;52.386;16.940;2024-02-16T10:40:40;39.97;;;11.82;;
21890;SDS011;11110;52.386;16.940;2024-02-16T10:43:13;36.78;;;11.38;;
21890;SDS011;11110;52.386;16.940;2024-02-16T10:45:43;32.58;;;11.27;;
21890;SDS011;11110;52.386;16.940;2024-02-16T10:48:12;34.22;;;10.70;;
21890;SDS011;11110;52.386;16.940;2024-02-16T10:50:42;40.03;;;11.63;;
21890;SDS011;11110;52.386;16.940;2024-02-16T10:53:13;35.40;;;10.88;;
21890;SDS011;11110;52.386;16.940;2024-02-16T10:55:44;36.03;;;10.68;;
21890;SDS011;11110;52.386;16.940;2024-02-16T10:58:28;26.00;;;9.82;;
21890;SDS011;11110;52.386;16.940;2024-02-16T11:00:56;37.25;;;11.23;;
21890;SDS011;11110;52.386;16.940;2024-02-16T11:03:26;34.63;;;11.27;;
21890;SDS011;11110;52.386;16.940;2024-02-16T11:05:58;32.63;;;10.70;;
21890;SDS011;11110;52.386;16.940;2024-02-16T11:08:27;28.42;;;9.93;;
21890;SDS011;11110;52.386;16.940;2024-02-16T11:10:56;28.45;;;9.57;;
21890;SDS011;11110;52.386;16.940;2024-02-16T11:13:28;31.42;;;10.52;;
21890;SDS011;11110;52.386;16.940;2024-02-16T11:16:00;30.40;;;10.88;;
21890;SDS011;11110;52.386;16.940;2024-02-16T11:18:30;30.88;;;10.45;;
21890;SDS011;11110;52.386;16.940;2024-02-16T11:21:00;37.78;;;10.77;;
21890;SDS011;11110;52.386;16.940;2024-02-16T11:23:29;37.42;;;11.80;;
21890;SDS011;11110;52.386;16.940;2024-02-16T11:26:02;27.48;;;9.70;;
21890;SDS011;11110;52.386;16.940;2024-02-16T11:28:33;24.88;;;10.07;;
21890;SDS011;11110;52.386;16.940;2024-02-16T11:31:03;28.10;;;9.68;;
21890;SDS011;11110;52.386;16.940;2024-02-16T11:33:32;26.13;;;9.73;;
21890;SDS011;11110;52.386;16.940;2024-02-16T11:36:02;33.10;;;10.90;;
21890;SDS011;11110;52.386;16.940;2024-02-16T11:38:32;31.08;;;10.25;;
21890;SDS011;11110;52.386;16.940;2024-02-16T11:41:01;25.08;;;9.27;;
21890;SDS011;11110;52.386;16.940;2024-02-16T11:43:32;31.20;;;9.80;;
21890;SDS011;11110;52.386;16.940;2024-02-16T11:46:10;27.25;;;9.88;;
21890;SDS011;11110;52.386;16.940;2024-02-16T11:48:40;30.95;;;10.90;;
21890;SDS011;11110;52.386;16.940;2024-02-16T11:51:09;25.20;;;8.73;;
21890;SDS011;11110;52.386;16.940;2024-02-16T11:53:38;24.33;;;7.75;;
21890;SDS011;11110;52.386;16.940;2024-02-16T11:56:06;27.05;;;8.73;;
21890;SDS011;11110;52.386;16.940;2024-02-16T11:58:36;41.60;;;11.88;;
21890;SDS011;11110;52.386;16.940;2024-02-16T12:01:05;26.50;;;9.15;;
21890;SDS011;11110;52.386;16.940;2024-02-16T12:03:40;26.08;;;8.52;;
21890;SDS011;11110;52.386;16.940;2024-02-16T12:06:18;34.88;;;10.43;;
21890;SDS011;11110;52.386;16.940;2024-02-16T12:08:49;33.53;;;9.10;;
21890;SDS011;11110;52.386;16.940;2024-02-16T12:11:19;23.08;;;7.85;;
21890;SDS011;11110;52.386;16.940;2024-02-16T12:13:49;29.65;;;7.97;;
21890;SDS011;11110;52.386;16.940;2024-02-16T12:16:18;22.50;;;7.40;;
21890;SDS011;11110;52.386;16.940;2024-02-16T12:18:47;30.80;;;8.80;;
21890;SDS011;11110;52.386;16.940;2024-02-16T12:21:17;22.83;;;7.97;;
21890;SDS011;11110;52.386;16.940;2024-02-16T12:23:47;24.15;;;8.15;;
21890;SDS011;11110;52.386;16.940;2024-02-16T12:26:16;26.40;;;8.23;;
21890;SDS011;11110;52.386;16.940;2024-02-16T12:28:45;27.50;;;8.32;;
21890;SDS011;11110;52.386;16.940;2024-02-16T12:31:19;26.20;;;8.25;;
21890;SDS011;11110;52.386;16.940;2024-02-16T12:33:48;29.48;;;9.20;;
21890;SDS011;11110;52.386;16.940;2024-02-16T12:36:16;21.50;;;7.70;;
21890;SDS011;11110;52.386;16.940;2024-02-16T12:38:45;25.27;;;8.10;;
21890;SDS011;11110;52.386;16.940;2024-02-16T12:41:14;24.70;;;8.10;;
21890;SDS011;11110;52.386;16.940;2024-02-16T12:43:42;29.48;;;8.40;;
21890;SDS011;11110;52.386;16.940;2024-02-16T12:46:11;27.40;;;8.52;;
21890;SDS011;11110;52.386;16.940;2024-02-16T12:48:41;30.25;;;9.90;;
21890;SDS011;11110;52.386;16.940;2024-02-16T12:51:14;25.33;;;9.07;;
21890;SDS011;11110;52.386;16.940;2024-02-16T12:53:43;52.15;;;40.08;;
21890;SDS011;11110;52.386;16.940;2024-02-16T12:56:12;36.65;;;31.27;;
21890;SDS011;11110;52.386;16.940;2024-02-16T12:58:40;44.33;;;27.20;;
21890;SDS011;11110;52.386;16.940;2024-02-16T13:01:09;47.60;;;32.78;;
21890;SDS011;11110;52.386;16.940;2024-02-16T13:03:53;54.95;;;34.13;;
21890;SDS011;11110;52.386;16.940;2024-02-16T13:06:21;43.30;;;33.83;;
21890;SDS011;11110;52.386;16.940;2024-02-16T13:08:55;38.03;;;28.50;;
21890;SDS011;11110;52.386;16.940;2024-02-16T13:11:23;44.28;;;20.67;;
21890;SDS011;11110;52.386;16.940;2024-02-16T13:13:52;34.00;;;19.27;;
21890;SDS011;11110;52.386;16.940;2024-02-16T13:16:20;40.97;;;18.08;;
21890;SDS011;11110;52.386;16.940;2024-02-16T13:18:49;42.92;;;28.67;;
21890;SDS011;11110;52.386;16.940;2024-02-16T13:21:19;51.90;;;41.13;;
21890;SDS011;11110;52.386;16.940;2024-02-16T13:23:49;55.35;;;44.35;;
21890;SDS011;11110;52.386;16.940;2024-02-16T13:26:17;66.07;;;48.50;;
21890;SDS011;11110;52.386;16.940;2024-02-16T13:28:46;74.82;;;58.70;;
21890;SDS011;11110;52.386;16.940;2024-02-16T13:31:14;82.18;;;58.08;;
21890;SDS011;11110;52.386;16.940;2024-02-16T13:33:43;77.93;;;57.55;;
21890;SDS011;11110;52.386;16.940;2024-02-16T13:36:11;90.68;;;60.38;;
21890;SDS011;11110;52.386;16.940;2024-02-16T13:38:42;93.72;;;63.13;;
21890;SDS011;11110;52.386;16.940;2024-02-16T13:41:10;108.70;;;67.80;;
21890;SDS011;11110;52.386;16.940;2024-02-16T13:43:41;103.32;;;65.25;;
21890;SDS011;11110;52.386;16.940;2024-02-16T13:46:10;93.82;;;64.78;;
21890;SDS011;11110;52.386;16.940;2024-02-16T13:48:38;147.18;;;71.13;;
21890;SDS011;11110;52.386;16.940;2024-02-16T13:51:08;163.18;;;73.80;;
21890;SDS011;11110;52.386;16.940;2024-02-16T13:53:37;142.43;;;71.72;;
21890;SDS011;11110;52.386;16.940;2024-02-16T13:56:07;143.32;;;72.93;;
21890;SDS011;11110;52.386;16.940;2024-02-16T13:58:36;140.25;;;72.95;;
21890;SDS011;11110;52.386;16.940;2024-02-16T14:01:05;150.43;;;74.50;;
21890;SDS011;11110;52.386;16.940;2024-02-16T14:03:35;137.70;;;71.15;;
21890;SDS011;11110;52.386;16.940;2024-02-16T14:06:04;144.20;;;72.85;;
21890;SDS011;11110;52.386;16.940;2024-02-16T14:08:37;139.98;;;70.57;;
21890;SDS011;11110;52.386;16.940;2024-02-16T14:11:05;147.18;;;73.07;;
21890;SDS011;11110;52.386;16.940;2024-02-16T14:13:37;145.43;;;74.00;;
21890;SDS011;11110;52.386;16.940;2024-02-16T14:16:05;149.32;;;73.32;;
21890;SDS011;11110;52.386;16.940;2024-02-16T14:18:34;147.32;;;71.88;;
21890;SDS011;11110;52.386;16.940;2024-02-16T14:21:03;176.77;;;77.38;;
21890;SDS011;11110;52.386;16.940;2024-02-16T14:23:32;156.02;;;74.90;;